createdAt,value
2017-10-08T00:00:33.751Z,11.10
2017-10-08T00:05:36.320Z,11.10
2017-10-08T00:10:38.898Z,11.10
2017-10-08T00:15:42.227Z,11.00
2017-10-08T00:20:44.823Z,11.00
2017-10-08T00:25:47.437Z,10.90
2017-10-08T00:30:50.012Z,10.90
2017-10-08T00:35:52.611Z,10.90
2017-10-08T00:40:55.206Z,10.80
2017-10-08T00:45:57.794Z,10.80
2017-10-08T00:51:00.366Z,10.70
2017-10-08T00:56:02.890Z,10.70
2017-10-08T01:01:05.471Z,10.70
2017-10-08T01:06:08.053Z,10.60
2017-10-08T01:11:10.610Z,10.60
2017-10-08T01:16:13.199Z,10.60
2017-10-08T01:21:16.535Z,10.50
2017-10-08T01:26:19.096Z,10.50
2017-10-08T01:31:21.659Z,10.50
2017-10-08T01:36:24.244Z,10.50
2017-10-08T01:41:26.870Z,10.40
2017-10-08T01:46:30.237Z,10.40
2017-10-08T01:51:32.798Z,10.30
2017-10-08T01:56:35.399Z,10.30
2017-10-08T02:01:37.985Z,10.30
2017-10-08T02:06:40.567Z,10.30
2017-10-08T02:11:43.194Z,10.30
2017-10-08T02:16:45.803Z,10.20
2017-10-08T02:21:48.367Z,10.20
2017-10-08T02:26:50.934Z,10.20
2017-10-08T02:31:53.496Z,10.10
2017-10-08T02:36:56.058Z,10.10
2017-10-08T02:47:07.493Z,10.00
2017-10-08T02:52:10.040Z,10.00
2017-10-08T02:57:12.606Z,10.00
2017-10-08T03:02:15.186Z,10.00
2017-10-08T03:07:17.770Z,10.00
2017-10-08T03:12:20.339Z,9.90
2017-10-08T03:17:22.942Z,9.90
2017-10-08T03:22:25.507Z,9.90
2017-10-08T03:27:28.075Z,9.90
2017-10-08T03:32:31.432Z,9.90
2017-10-08T03:37:34.014Z,9.90
2017-10-08T03:42:36.591Z,9.90
2017-10-08T03:47:39.173Z,9.90
2017-10-08T03:52:41.721Z,9.90
2017-10-08T03:57:44.292Z,9.90
2017-10-08T04:02:46.866Z,9.90
2017-10-08T04:07:49.434Z,9.90
2017-10-08T04:12:51.999Z,9.90
2017-10-08T04:17:54.579Z,9.90
2017-10-08T04:22:57.123Z,9.90
2017-10-08T04:27:59.683Z,9.90
2017-10-08T04:33:02.249Z,9.80
2017-10-08T04:38:04.794Z,9.80
2017-10-08T04:43:07.342Z,9.80
2017-10-08T04:48:09.885Z,9.80
2017-10-08T04:53:12.451Z,9.80
2017-10-08T04:58:15.775Z,9.80
2017-10-08T05:03:18.336Z,9.80
2017-10-08T05:08:21.683Z,9.80
2017-10-08T05:13:24.262Z,9.70
2017-10-08T05:18:26.843Z,9.80
2017-10-08T05:23:30.175Z,9.70
2017-10-08T05:28:32.758Z,9.70
2017-10-08T05:33:36.112Z,9.70
2017-10-08T05:38:38.658Z,9.70
2017-10-08T05:43:41.230Z,9.70
2017-10-08T05:48:43.830Z,9.70
2017-10-08T05:53:46.379Z,9.70
2017-10-08T05:58:49.728Z,9.70
2017-10-08T06:03:52.293Z,9.70
2017-10-08T06:08:54.906Z,9.70
2017-10-08T06:13:57.879Z,9.70
2017-10-08T06:19:00.429Z,9.70
2017-10-08T06:24:02.961Z,9.70
2017-10-08T06:29:05.931Z,9.70
2017-10-08T06:34:08.482Z,9.70
2017-10-08T06:39:11.030Z,9.80
2017-10-08T06:44:13.633Z,9.80
2017-10-08T06:49:16.215Z,9.80
2017-10-08T06:54:18.804Z,9.80
2017-10-08T06:59:21.363Z,9.80
2017-10-08T07:04:23.944Z,9.80
2017-10-08T07:09:26.536Z,9.90
2017-10-08T07:14:29.079Z,9.90
2017-10-08T07:19:31.657Z,9.90
2017-10-08T07:24:34.206Z,9.90
2017-10-08T07:29:37.552Z,10.00
2017-10-08T07:34:40.114Z,10.00
2017-10-08T07:39:43.445Z,10.10
2017-10-08T07:44:46.775Z,10.10
2017-10-08T07:49:49.318Z,10.10
2017-10-08T07:54:51.916Z,10.20
2017-10-08T07:59:54.492Z,10.20
2017-10-08T08:04:57.059Z,10.30
2017-10-08T08:09:59.634Z,10.30
2017-10-08T08:15:02.201Z,10.40
2017-10-08T08:20:04.776Z,10.40
2017-10-08T08:25:07.340Z,10.50
2017-10-08T08:30:09.889Z,10.50
2017-10-08T08:35:12.479Z,10.70
2017-10-08T08:40:15.051Z,10.70
2017-10-08T08:45:17.633Z,10.80
2017-10-08T08:50:20.987Z,10.90
2017-10-08T08:55:23.572Z,10.90
2017-10-08T09:00:26.123Z,11.00
2017-10-08T09:05:28.666Z,11.10
2017-10-08T09:10:31.225Z,11.10
2017-10-08T09:15:34.043Z,11.20
2017-10-08T09:20:36.615Z,11.20
2017-10-08T09:25:39.251Z,11.30
2017-10-08T09:30:42.674Z,11.30
2017-10-08T09:35:45.270Z,11.30
2017-10-08T09:40:48.003Z,11.40
2017-10-08T09:45:51.220Z,11.40
2017-10-08T09:50:53.841Z,11.50
2017-10-08T09:55:56.425Z,11.50
2017-10-08T10:00:59.020Z,11.60
2017-10-08T10:06:01.615Z,11.70
2017-10-08T10:11:04.214Z,11.80
2017-10-08T10:16:07.210Z,11.80
2017-10-08T10:21:10.520Z,11.90
2017-10-08T10:26:13.866Z,12.00
2017-10-08T10:31:16.441Z,12.00
2017-10-08T10:36:19.642Z,12.10
2017-10-08T10:41:22.997Z,12.30
2017-10-08T10:46:25.571Z,12.30
2017-10-08T10:51:28.128Z,12.40
2017-10-08T10:56:30.700Z,12.50
2017-10-08T11:01:33.268Z,12.60
2017-10-08T11:06:35.852Z,12.70
2017-10-08T11:11:39.197Z,13.00
2017-10-08T11:16:41.785Z,12.90
2017-10-08T11:21:44.372Z,13.00
2017-10-08T11:26:47.746Z,13.20
2017-10-08T11:31:50.354Z,13.20
2017-10-08T11:36:52.947Z,13.30
2017-10-08T11:41:55.585Z,13.50
2017-10-08T11:46:58.152Z,13.70
2017-10-08T11:52:00.708Z,13.90
2017-10-08T11:57:03.270Z,14.20
2017-10-08T12:02:05.840Z,14.40
2017-10-08T12:07:08.423Z,14.50
2017-10-08T12:12:11.769Z,14.60
2017-10-08T12:17:14.345Z,14.50
2017-10-08T12:22:16.911Z,14.50
2017-10-08T12:27:20.308Z,14.60
2017-10-08T12:32:23.631Z,14.60
2017-10-08T12:37:26.205Z,14.60
2017-10-08T12:42:28.797Z,14.70
2017-10-08T12:47:31.367Z,14.70
2017-10-08T12:52:33.954Z,14.80
2017-10-08T12:57:36.496Z,14.80
2017-10-08T13:02:39.100Z,14.70
2017-10-08T13:07:41.730Z,14.70
2017-10-08T13:12:44.300Z,14.60
2017-10-08T13:17:46.888Z,14.50
2017-10-08T13:22:49.469Z,14.50
2017-10-08T13:27:52.062Z,14.40
2017-10-08T13:32:54.627Z,14.40
2017-10-08T13:37:57.212Z,14.30
2017-10-08T13:42:59.771Z,14.30
2017-10-08T13:48:02.363Z,14.20
2017-10-08T13:53:04.934Z,14.20
2017-10-08T13:58:07.504Z,14.20
2017-10-08T14:03:10.098Z,14.20
2017-10-08T14:08:12.690Z,14.10
2017-10-08T14:13:15.268Z,14.20
2017-10-08T14:18:17.875Z,14.30
2017-10-08T14:23:20.467Z,14.40
2017-10-08T14:28:23.219Z,14.40
2017-10-08T14:33:26.584Z,14.60
2017-10-08T14:38:29.175Z,14.50
2017-10-08T14:43:31.738Z,14.60
2017-10-08T14:48:35.080Z,14.60
2017-10-08T14:53:37.656Z,14.60
2017-10-08T14:58:40.200Z,14.60
2017-10-08T15:03:43.597Z,14.50
2017-10-08T15:08:47.199Z,14.50
2017-10-08T15:13:49.800Z,14.50
2017-10-08T15:18:53.104Z,14.40
2017-10-08T15:23:56.473Z,14.30
2017-10-08T15:28:59.039Z,14.30
2017-10-08T15:34:01.588Z,14.30
2017-10-08T15:39:04.158Z,14.20
2017-10-08T15:44:06.761Z,14.20
2017-10-08T15:49:09.331Z,14.20
2017-10-08T15:54:11.928Z,14.10
2017-10-08T15:59:14.482Z,14.00
2017-10-08T16:04:17.053Z,14.00
2017-10-08T16:09:19.595Z,13.90
2017-10-08T16:14:22.155Z,13.90
2017-10-08T16:19:24.712Z,13.80
2017-10-08T16:24:27.255Z,13.80
2017-10-08T16:29:29.804Z,13.70
2017-10-08T16:34:33.136Z,13.60
2017-10-08T16:39:35.675Z,13.60
2017-10-08T16:44:38.273Z,13.60
2017-10-08T16:49:40.826Z,13.50
2017-10-08T16:54:44.162Z,13.40
2017-10-08T16:59:46.707Z,13.40
2017-10-08T17:04:49.279Z,13.40
2017-10-08T17:09:51.853Z,13.30
2017-10-08T17:14:54.395Z,13.30
2017-10-08T17:19:56.958Z,13.20
2017-10-08T17:24:59.522Z,13.20
2017-10-08T17:30:02.070Z,13.10
2017-10-08T17:35:04.632Z,13.10
2017-10-08T17:40:07.980Z,13.00
2017-10-08T17:45:10.655Z,13.00
2017-10-08T17:50:13.227Z,13.00
2017-10-08T17:55:15.825Z,12.90
2017-10-08T18:00:18.455Z,12.90
2017-10-08T18:05:21.086Z,12.90
2017-10-08T18:10:23.696Z,12.90
2017-10-08T18:15:26.375Z,12.80
2017-10-08T18:20:29.136Z,12.80
2017-10-08T18:25:31.812Z,12.80
2017-10-08T18:30:34.402Z,12.70
2017-10-08T18:35:37.079Z,12.70
2017-10-08T18:40:39.729Z,12.60
2017-10-08T18:45:42.366Z,12.70
2017-10-08T18:50:45.016Z,12.60
2017-10-08T18:55:47.663Z,12.60
2017-10-08T19:00:50.261Z,12.60
2017-10-08T19:05:52.853Z,12.60
2017-10-08T19:10:55.429Z,12.50
2017-10-08T19:15:58.007Z,12.50
2017-10-08T19:21:00.614Z,12.50
2017-10-08T19:26:03.237Z,12.50
2017-10-08T19:31:05.822Z,12.50
2017-10-08T19:36:08.419Z,12.40
2017-10-08T19:41:11.046Z,12.40
2017-10-08T19:46:14.391Z,12.40
2017-10-08T19:51:16.987Z,12.30
2017-10-08T19:56:19.541Z,12.30
2017-10-08T20:01:22.117Z,12.30
2017-10-08T20:06:24.685Z,12.30
2017-10-08T20:11:27.252Z,12.20
2017-10-08T20:16:30.613Z,12.20
2017-10-08T20:21:33.182Z,12.20
2017-10-08T20:26:35.748Z,12.20
2017-10-08T20:31:38.323Z,12.10
2017-10-08T20:36:40.935Z,12.10
2017-10-08T20:41:43.496Z,12.10
2017-10-08T20:46:46.295Z,12.00
2017-10-08T20:51:49.636Z,11.90
2017-10-08T20:56:52.180Z,11.90
2017-10-08T21:01:54.735Z,11.90
2017-10-08T21:06:57.279Z,11.80
2017-10-08T21:11:59.840Z,11.80
2017-10-08T21:17:02.387Z,11.70
2017-10-08T21:22:04.936Z,11.70
2017-10-08T21:27:07.499Z,11.70
2017-10-08T21:32:10.082Z,11.60
2017-10-08T21:37:12.618Z,11.60
2017-10-08T21:42:15.180Z,11.60
2017-10-08T21:47:17.722Z,11.60
2017-10-08T21:52:20.284Z,11.50
2017-10-08T21:57:23.606Z,11.50
2017-10-08T22:02:26.154Z,11.50
2017-10-08T22:07:28.707Z,11.50
2017-10-08T22:12:31.277Z,11.50
2017-10-08T22:17:33.831Z,11.40
2017-10-08T22:22:36.393Z,11.40
2017-10-08T22:27:38.978Z,11.40
2017-10-08T22:32:41.534Z,11.40
2017-10-08T22:37:44.103Z,11.40
2017-10-08T22:42:46.709Z,11.40
2017-10-08T22:47:49.277Z,11.40
2017-10-08T22:52:52.585Z,11.30
2017-10-08T22:57:55.149Z,11.30
2017-10-08T23:02:57.718Z,11.40
2017-10-08T23:08:00.291Z,11.30
2017-10-08T23:13:02.834Z,11.30
2017-10-08T23:18:05.382Z,11.30
2017-10-08T23:23:07.950Z,11.30
2017-10-08T23:28:10.508Z,11.30
2017-10-08T23:33:13.059Z,11.20
2017-10-08T23:38:15.642Z,11.20
2017-10-08T23:43:18.197Z,11.20
2017-10-08T23:48:20.760Z,11.20
2017-10-08T23:53:23.307Z,11.20
2017-10-08T23:58:25.854Z,11.10
